Louisville, Kentucky
Current Conditions -  °F | °C
As of 4:56 AM on Monday 20 Oct 2014 (Local Time) from KSDF Reporting Station
Scattered Clouds Scattered Clouds  
Wind Chill: 43°   Ceiling: Unl
Heat Index: 46°   Visibility: 10mi
Dew Point: 43°   Wind: 6mph
Humidity: 89%   Direction: 130°SE
Pressure: 30.05"   Gusts: NA
Location:  38.25°N, 85.77°W
Report Text: KSDF 200856Z 13005KT 10SM SCT120 SCT200 08/06 A3005 RMK AO2 SLP174 T00780061 56005
Loading
Personal Weather Stations






























Interactive Weather Map
Tropical Storm Tracking
New forecast layout! Learn more

10-Day Weather Forecast

Advertisements
Track Severe Weather on mobile